Time;durP1;ratioP1;P1;durP2;ratioP2;P2;SDS_P1;SDS_P2;PMS_P1;PMS_P2;Temp;Humidity;BMP_temperature;BMP_pressure;BME280_temperature;BME280_humidity;BME280_pressure;Samples;Min_cycle;Max_cycle;Signal;HPM_P1;HPM_P2
2023/07/15 00:04:34;;;;;;;;;;;23.70;59.20;;;;;;10330947;28;94560;-66
2023/07/15 00:09:36;;;;;;;;;;;23.70;59.20;;;;;;10331341;28;92539;-67
2023/07/15 00:14:39;;;;;;;;;;;23.70;59.10;;;;;;10330824;28;93939;-65
2023/07/15 00:19:40;;;;;;;;;;;23.70;59.20;;;;;;10328524;28;94338;-65
2023/07/15 00:24:43;;;;;;;;;;;23.70;59.20;;;;;;10330704;28;92496;-65
2023/07/15 00:29:44;;;;;;;;;;;23.70;59.10;;;;;;10329494;28;93538;-65
2023/07/15 00:34:46;;;;;;;;;;;23.70;59.20;;;;;;10328532;28;93452;-65
2023/07/15 00:39:48;;;;;;;;;;;23.70;59.10;;;;;;10326537;28;95989;-65
2023/07/15 00:44:50;;;;;;;;;;;23.70;59.10;;;;;;10328064;28;94611;-65
2023/07/15 00:49:52;;;;;;;;;;;23.70;59.10;;;;;;10328633;28;93130;-64
2023/07/15 00:54:54;;;;;;;;;;;23.70;59.00;;;;;;10327511;28;94498;-65
2023/07/15 00:59:58;;;;;;;;;;;23.70;58.90;;;;;;10328974;28;93716;-65
2023/07/15 01:05:00;;;;;;;;;;;23.70;58.90;;;;;;10328500;28;93459;-65
2023/07/15 01:10:02;;;;;;;;;;;23.70;58.90;;;;;;10327921;28;93893;-65
2023/07/15 01:15:04;;;;;;;;;;;23.70;58.90;;;;;;10328671;28;91772;-65
2023/07/15 01:20:06;;;;;;;;;;;23.70;58.80;;;;;;10328195;28;93462;-65
2023/07/15 01:25:08;;;;;;;;;;;23.70;58.80;;;;;;10327666;28;92596;-65
2023/07/15 01:30:10;;;;;;;;;;;23.70;58.70;;;;;;10325927;28;98927;-65
2023/07/15 01:35:12;;;;;;;;;;;23.70;58.70;;;;;;10327721;28;94793;-65
2023/07/15 01:40:14;;;;;;;;;;;23.80;58.70;;;;;;10325354;28;93613;-66
2023/07/15 01:45:16;;;;;;;;;;;23.70;58.70;;;;;;10326825;28;94516;-65
2023/07/15 01:50:17;;;;;;;;;;;23.70;58.60;;;;;;10324783;28;93616;-65
2023/07/15 01:55:19;;;;;;;;;;;23.80;58.60;;;;;;10326837;28;94669;-66
2023/07/15 02:00:21;;;;;;;;;;;23.80;58.50;;;;;;10327812;28;94640;-66
2023/07/15 02:05:23;;;;;;;;;;;23.80;58.50;;;;;;10327700;28;93832;-66
2023/07/15 02:10:27;;;;;;;;;;;23.80;58.50;;;;;;10326840;28;94746;-66
2023/07/15 02:15:29;;;;;;;;;;;23.80;58.40;;;;;;10326074;28;93434;-66
2023/07/15 02:20:31;;;;;;;;;;;23.80;58.30;;;;;;10323109;28;96502;-65
2023/07/15 02:25:33;;;;;;;;;;;23.80;58.30;;;;;;10327363;28;94613;-66
2023/07/15 02:30:35;;;;;;;;;;;23.80;58.30;;;;;;10326803;28;93044;-66
2023/07/15 02:35:38;;;;;;;;;;;23.80;58.30;;;;;;10324691;28;94401;-66
2023/07/15 02:40:40;;;;;;;;;;;23.80;58.30;;;;;;10324428;28;93808;-66
2023/07/15 02:45:42;;;;;;;;;;;23.80;58.20;;;;;;10327788;28;92575;-65
2023/07/15 02:50:44;;;;;;;;;;;23.80;58.10;;;;;;10322045;28;94786;-65
2023/07/15 02:55:46;;;;;;;;;;;23.80;58.00;;;;;;10333675;28;93734;-66
2023/07/15 03:00:48;;;;;;;;;;;23.80;58.10;;;;;;10315552;28;94371;-65
2023/07/15 03:05:50;;;;;;;;;;;23.80;58.00;;;;;;10314674;28;93208;-66
2023/07/15 03:10:52;;;;;;;;;;;23.80;58.00;;;;;;10311875;28;96859;-65
2023/07/15 03:15:53;;;;;;;;;;;23.80;58.00;;;;;;10331567;28;93951;-65
2023/07/15 03:20:58;;;;;;;;;;;23.80;58.00;;;;;;10331428;28;93526;-65
2023/07/15 03:26:00;;;;;;;;;;;23.70;58.10;;;;;;10314040;28;94540;-64
2023/07/15 03:31:02;;;;;;;;;;;23.80;58.10;;;;;;10330924;28;93468;-64
2023/07/15 03:36:03;;;;;;;;;;;23.70;58.10;;;;;;10332251;28;93198;-65
2023/07/15 03:41:06;;;;;;;;;;;23.70;58.10;;;;;;10312803;28;94626;-64
2023/07/15 03:46:08;;;;;;;;;;;23.70;58.10;;;;;;10332576;28;92767;-65
2023/07/15 03:51:10;;;;;;;;;;;23.70;58.20;;;;;;10330429;28;94526;-65
2023/07/15 03:56:11;;;;;;;;;;;23.70;58.30;;;;;;10329512;28;93703;-64
2023/07/15 04:01:14;;;;;;;;;;;23.60;58.30;;;;;;10327663;28;95845;-64
2023/07/15 04:06:16;;;;;;;;;;;23.60;58.30;;;;;;10329925;28;94614;-64
2023/07/15 04:11:18;;;;;;;;;;;23.60;58.30;;;;;;10330703;28;94678;-64
2023/07/15 04:16:20;;;;;;;;;;;23.60;58.40;;;;;;10312408;28;93583;-65
2023/07/15 04:21:22;;;;;;;;;;;23.50;58.40;;;;;;10329386;28;92576;-64
2023/07/15 04:26:25;;;;;;;;;;;23.50;58.40;;;;;;10330061;28;93877;-64
2023/07/15 04:31:27;;;;;;;;;;;23.50;58.40;;;;;;10328990;28;93159;-65
2023/07/15 04:36:29;;;;;;;;;;;23.50;58.40;;;;;;10330007;28;92896;-63
2023/07/15 04:41:31;;;;;;;;;;;23.50;58.50;;;;;;10330241;28;94513;-64
2023/07/15 04:51:48;;;;;;;;;;;23.50;58.60;;;;;;10279767;28;95865;-62
2023/07/15 04:56:50;;;;;;;;;;;23.50;58.60;;;;;;10289257;28;93689;-62
2023/07/15 05:01:52;;;;;;;;;;;23.50;58.70;;;;;;10319410;28;93724;-62
2023/07/15 05:06:54;;;;;;;;;;;23.50;58.70;;;;;;10329389;28;93074;-62
2023/07/15 05:11:57;;;;;;;;;;;23.50;58.70;;;;;;10328507;28;93625;-62
2023/07/15 05:16:59;;;;;;;;;;;23.50;58.80;;;;;;10330550;28;93812;-62
2023/07/15 05:22:01;;;;;;;;;;;23.50;58.80;;;;;;10328474;28;93690;-62
2023/07/15 05:27:03;;;;;;;;;;;23.60;58.80;;;;;;10329362;28;92942;-62
2023/07/15 05:32:05;;;;;;;;;;;23.60;58.90;;;;;;10327264;28;93316;-62
2023/07/15 05:37:07;;;;;;;;;;;23.60;58.90;;;;;;10328435;28;94078;-63
2023/07/15 05:42:09;;;;;;;;;;;23.60;58.90;;;;;;10323732;28;95841;-63
2023/07/15 05:47:11;;;;;;;;;;;23.60;59.00;;;;;;10327905;28;93915;-63
2023/07/15 05:52:13;;;;;;;;;;;23.60;59.10;;;;;;10327652;28;94547;-62
2023/07/15 05:57:14;;;;;;;;;;;23.70;59.20;;;;;;10326769;28;93681;-63
2023/07/15 06:02:16;;;;;;;;;;;23.70;59.20;;;;;;10327163;28;93246;-64
2023/07/15 06:07:18;;;;;;;;;;;23.70;59.30;;;;;;10328030;28;94666;-64
2023/07/15 06:12:20;;;;;;;;;;;23.70;59.50;;;;;;10310238;28;93513;-63
2023/07/15 06:17:23;;;;;;;;;;;23.70;59.60;;;;;;10329164;28;93026;-64
2023/07/15 06:22:25;;;;;;;;;;;23.70;59.70;;;;;;10312841;28;93434;-64
2023/07/15 06:27:27;;;;;;;;;;;23.80;59.80;;;;;;10298541;28;93218;-64
2023/07/15 06:32:29;;;;;;;;;;;23.80;59.70;;;;;;10332759;28;97180;-64
2023/07/15 06:37:32;;;;;;;;;;;23.80;59.90;;;;;;10333151;28;93443;-65
2023/07/15 06:42:34;;;;;;;;;;;23.80;60.00;;;;;;10333673;28;93522;-64
2023/07/15 06:47:35;;;;;;;;;;;23.80;60.00;;;;;;10326446;28;93694;-64
2023/07/15 06:52:37;;;;;;;;;;;23.80;60.20;;;;;;10327401;28;93781;-63
2023/07/15 06:57:39;;;;;;;;;;;23.80;60.20;;;;;;10316057;28;94484;-65
2023/07/15 07:02:41;;;;;;;;;;;23.90;60.10;;;;;;10333492;28;94472;-63
2023/07/15 07:07:42;;;;;;;;;;;24.00;60.00;;;;;;10316951;28;93877;-64
2023/07/15 07:12:46;;;;;;;;;;;24.00;59.90;;;;;;10332388;28;94161;-64
2023/07/15 07:17:47;;;;;;;;;;;24.00;59.90;;;;;;10332832;28;93539;-64
2023/07/15 07:22:49;;;;;;;;;;;24.10;59.90;;;;;;10329687;28;95771;-64
2023/07/15 07:27:51;;;;;;;;;;;24.10;59.80;;;;;;10331026;28;93627;-64
2023/07/15 07:32:53;;;;;;;;;;;24.20;59.80;;;;;;10331588;28;94529;-64
2023/07/15 07:37:55;;;;;;;;;;;24.20;59.90;;;;;;10331748;28;94210;-64
2023/07/15 07:42:57;;;;;;;;;;;24.20;59.80;;;;;;10330911;28;94463;-64
2023/07/15 07:47:59;;;;;;;;;;;24.20;59.90;;;;;;10331191;28;94516;-64
2023/07/15 07:53:01;;;;;;;;;;;24.20;60.00;;;;;;10331134;28;92528;-64
2023/07/15 07:58:03;;;;;;;;;;;24.20;59.90;;;;;;10331407;28;93794;-62
2023/07/15 08:03:05;;;;;;;;;;;24.20;60.60;;;;;;10330405;28;93425;-64
2023/07/15 08:08:07;;;;;;;;;;;24.20;61.90;;;;;;10330760;28;94737;-64
2023/07/15 08:13:09;;;;;;;;;;;24.30;61.70;;;;;;10327863;28;95889;-64
2023/07/15 08:18:11;;;;;;;;;;;24.30;61.60;;;;;;10329703;28;94526;-64
2023/07/15 08:23:12;;;;;;;;;;;24.30;61.40;;;;;;10330352;28;94514;-61
2023/07/15 08:28:14;;;;;;;;;;;24.40;61.70;;;;;;10312324;28;94422;-62
2023/07/15 08:33:16;;;;;;;;;;;24.40;61.50;;;;;;10311423;28;93485;-61
2023/07/15 08:38:18;;;;;;;;;;;24.40;61.40;;;;;;10329870;28;93428;-61
2023/07/15 08:43:20;;;;;;;;;;;24.40;61.40;;;;;;10327942;28;92820;-62
2023/07/15 08:48:21;;;;;;;;;;;24.40;61.50;;;;;;10330493;28;93844;-62
2023/07/15 08:53:27;;;;;;;;;;;24.40;61.50;;;;;;10329475;28;94692;-62
2023/07/15 08:58:29;;;;;;;;;;;24.40;61.40;;;;;;10330105;28;93404;-62
2023/07/15 09:03:30;;;;;;;;;;;24.40;61.30;;;;;;10327053;28;94963;-63
2023/07/15 09:08:33;;;;;;;;;;;24.40;61.30;;;;;;10328118;28;93511;-64
2023/07/15 09:13:35;;;;;;;;;;;24.40;61.20;;;;;;10329302;28;96437;-62
2023/07/15 09:18:46;;;;;;;;;;;24.40;61.20;;;;;;10412545;28;87987;-63
2023/07/15 09:23:48;;;;;;;;;;;24.30;61.10;;;;;;10408266;28;88927;-64
2023/07/15 09:28:49;;;;;;;;;;;24.40;61.20;;;;;;10409784;27;88425;-64
2023/07/15 09:34:00;;;;;;;;;;;24.40;61.30;;;;;;10407486;28;88587;-64
2023/07/15 09:39:03;;;;;;;;;;;24.40;61.30;;;;;;10408930;27;88249;-64
2023/07/15 09:44:05;;;;;;;;;;;24.30;61.40;;;;;;10408869;27;88537;-64
2023/07/15 09:49:07;;;;;;;;;;;24.40;61.70;;;;;;10408780;28;89437;-63
2023/07/15 09:54:09;;;;;;;;;;;24.40;61.90;;;;;;10408175;28;89056;-64
2023/07/15 09:59:21;;;;;;;;;;;24.50;61.70;;;;;;10408522;27;88700;-64
2023/07/15 10:04:32;;;;;;;;;;;24.50;61.60;;;;;;10409426;27;88582;-64
2023/07/15 10:09:34;;;;;;;;;;;24.50;61.60;;;;;;10408628;27;88192;-64
2023/07/15 10:14:37;;;;;;;;;;;24.50;61.60;;;;;;10407785;27;88287;-64
2023/07/15 10:19:41;;;;;;;;;;;24.50;61.60;;;;;;10408435;27;88414;-64
2023/07/15 10:24:44;;;;;;;;;;;24.50;61.80;;;;;;10406685;27;89177;-64
2023/07/15 10:29:45;;;;;;;;;;;24.50;62.00;;;;;;10378718;28;89259;-63
2023/07/15 10:34:54;;;;;;;;;;;24.50;61.80;;;;;;10376983;28;91736;-64
2023/07/15 10:39:56;;;;;;;;;;;24.60;62.90;;;;;;10379501;28;89405;-64
2023/07/15 10:44:58;;;;;;;;;;;24.70;62.80;;;;;;10378922;28;89340;-66
2023/07/15 10:49:59;;;;;;;;;;;24.80;62.40;;;;;;10379382;28;88787;-65
2023/07/15 10:55:02;;;;;;;;;;;24.90;62.10;;;;;;10378952;28;87581;-65
2023/07/15 11:00:06;;;;;;;;;;;24.80;61.90;;;;;;10379110;28;88491;-65
2023/07/15 11:05:10;;;;;;;;;;;24.80;61.50;;;;;;10361830;28;89380;-65
2023/07/15 11:10:12;;;;;;;;;;;24.70;61.70;;;;;;10378874;28;88151;-65
2023/07/15 11:15:18;;;;;;;;;;;24.70;61.90;;;;;;10377028;28;89393;-65
2023/07/15 11:20:20;;;;;;;;;;;24.80;62.00;;;;;;10378426;28;88354;-65
2023/07/15 11:25:21;;;;;;;;;;;24.80;61.70;;;;;;10377914;28;88268;-65
2023/07/15 11:30:23;;;;;;;;;;;24.80;61.30;;;;;;10377572;28;88278;-65
2023/07/15 11:35:29;;;;;;;;;;;24.80;60.80;;;;;;10376839;28;87945;-65
2023/07/15 11:40:31;;;;;;;;;;;24.90;60.10;;;;;;10375178;28;89350;-65
2023/07/15 11:45:33;;;;;;;;;;;24.80;60.10;;;;;;10377197;28;89717;-65
2023/07/15 11:50:35;;;;;;;;;;;24.80;60.20;;;;;;10376456;28;87795;-64
2023/07/15 11:55:37;;;;;;;;;;;24.80;60.20;;;;;;10376888;28;88301;-65
2023/07/15 12:00:42;;;;;;;;;;;24.80;59.80;;;;;;10377112;28;88508;-65
2023/07/15 12:05:47;;;;;;;;;;;24.80;60.00;;;;;;10377101;28;88304;-65
2023/07/15 12:11:00;;;;;;;;;;;24.80;60.40;;;;;;10377541;28;88366;-65
2023/07/15 12:16:01;;;;;;;;;;;24.80;60.70;;;;;;10375837;28;89277;-66
2023/07/15 12:21:03;;;;;;;;;;;24.80;60.70;;;;;;10376360;28;88274;-65
2023/07/15 12:26:05;;;;;;;;;;;24.80;61.00;;;;;;10375261;28;89076;-65
2023/07/15 12:31:07;;;;;;;;;;;24.80;61.00;;;;;;10376445;28;89238;-66
2023/07/15 12:36:11;;;;;;;;;;;24.80;61.10;;;;;;10375095;28;88155;-64
2023/07/15 12:41:13;;;;;;;;;;;24.80;61.40;;;;;;10375660;28;89337;-67
2023/07/15 12:46:15;;;;;;;;;;;24.80;61.60;;;;;;10375449;28;89688;-65
2023/07/15 12:51:20;;;;;;;;;;;24.80;61.50;;;;;;10374295;28;88486;-65
2023/07/15 12:56:22;;;;;;;;;;;24.80;61.20;;;;;;10376332;28;88119;-65
2023/07/15 13:01:24;;;;;;;;;;;24.80;61.10;;;;;;10374564;28;88759;-65
2023/07/15 13:06:26;;;;;;;;;;;24.80;62.20;;;;;;10375649;28;89253;-65
2023/07/15 13:11:28;;;;;;;;;;;24.80;61.30;;;;;;10375442;28;89016;-65
2023/07/15 13:16:30;;;;;;;;;;;24.90;61.40;;;;;;10373753;28;89579;-65
2023/07/15 13:21:31;;;;;;;;;;;24.90;61.30;;;;;;10375802;28;88242;-66
2023/07/15 13:26:33;;;;;;;;;;;25.00;61.10;;;;;;10375525;28;88724;-65
2023/07/15 13:31:35;;;;;;;;;;;25.00;60.80;;;;;;10373968;28;88356;-65
2023/07/15 13:36:39;;;;;;;;;;;25.00;60.10;;;;;;10374867;28;89268;-65
2023/07/15 13:41:41;;;;;;;;;;;25.00;59.70;;;;;;10374575;28;89276;-65
2023/07/15 13:46:42;;;;;;;;;;;25.00;59.70;;;;;;10373413;28;89476;-64
2023/07/15 13:51:44;;;;;;;;;;;25.00;59.30;;;;;;10373359;28;87700;-65
2023/07/15 13:56:46;;;;;;;;;;;25.00;59.40;;;;;;10374143;28;88404;-63
2023/07/15 14:01:48;;;;;;;;;;;25.00;59.10;;;;;;10374490;28;89299;-65
2023/07/15 14:06:50;;;;;;;;;;;25.00;58.50;;;;;;10378484;28;89129;-65
2023/07/15 14:11:52;;;;;;;;;;;24.90;58.00;;;;;;10381318;27;88454;-65
2023/07/15 14:16:54;;;;;;;;;;;24.90;57.80;;;;;;10379871;28;88284;-66
2023/07/15 14:21:57;;;;;;;;;;;24.90;57.40;;;;;;10380912;28;89305;-65
2023/07/15 14:27:16;;;;;;;;;;;25.00;57.10;;;;;;10379851;28;88142;-66
2023/07/15 14:32:18;;;;;;;;;;;24.90;57.20;;;;;;10378911;28;87851;-67
2023/07/15 14:37:19;;;;;;;;;;;24.90;57.40;;;;;;10379434;28;88448;-66
2023/07/15 14:42:21;;;;;;;;;;;24.90;57.60;;;;;;10379075;28;89250;-66
2023/07/15 14:47:23;;;;;;;;;;;24.90;57.70;;;;;;10379721;28;87583;-66
2023/07/15 14:52:25;;;;;;;;;;;24.90;57.80;;;;;;10379350;28;88205;-65
2023/07/15 14:57:27;;;;;;;;;;;24.90;57.90;;;;;;10379188;28;88730;-66
2023/07/15 15:02:29;;;;;;;;;;;24.90;58.20;;;;;;10395401;28;88364;-63
2023/07/15 15:07:30;;;;;;;;;;;24.90;58.10;;;;;;10421112;27;89289;-66
2023/07/15 15:12:32;;;;;;;;;;;24.90;58.30;;;;;;10421484;27;88153;-65
2023/07/15 15:17:34;;;;;;;;;;;24.90;58.20;;;;;;10420391;27;89519;-66
2023/07/15 15:22:36;;;;;;;;;;;24.90;58.50;;;;;;10416956;28;89196;-64
2023/07/15 15:27:38;;;;;;;;;;;25.00;59.90;;;;;;10415382;28;89552;-63
2023/07/15 15:32:40;;;;;;;;;;;25.10;60.50;;;;;;10419582;28;89303;-65
2023/07/15 15:37:42;;;;;;;;;;;25.20;60.40;;;;;;10419671;28;89478;-66
2023/07/15 15:42:44;;;;;;;;;;;25.40;60.90;;;;;;10417074;28;88633;-63
2023/07/15 15:47:46;;;;;;;;;;;25.60;63.00;;;;;;10419106;28;89250;-63
2023/07/15 15:52:49;;;;;;;;;;;25.70;60.90;;;;;;10418353;28;89397;-63
2023/07/15 15:57:51;;;;;;;;;;;25.70;60.30;;;;;;10418638;27;89086;-64
2023/07/15 16:02:53;;;;;;;;;;;25.70;60.10;;;;;;10417979;27;89038;-64
2023/07/15 16:07:55;;;;;;;;;;;25.70;60.10;;;;;;10418162;27;89200;-64
2023/07/15 16:12:56;;;;;;;;;;;25.70;60.30;;;;;;10418389;27;88493;-63
2023/07/15 16:17:58;;;;;;;;;;;25.70;60.60;;;;;;10418647;28;89287;-64
2023/07/15 16:23:00;;;;;;;;;;;25.60;61.30;;;;;;10418201;27;87671;-65
2023/07/15 16:28:02;;;;;;;;;;;25.60;61.00;;;;;;10414611;27;88262;-65
2023/07/15 16:33:04;;;;;;;;;;;25.40;60.30;;;;;;10412845;28;89192;-65
2023/07/15 16:38:06;;;;;;;;;;;25.00;60.50;;;;;;10417654;27;89243;-63
2023/07/15 16:43:08;;;;;;;;;;;24.50;61.70;;;;;;10415125;28;89219;-63
2023/07/15 16:48:09;;;;;;;;;;;24.30;62.90;;;;;;10414987;27;88328;-62
2023/07/15 16:53:11;;;;;;;;;;;24.10;63.30;;;;;;10412302;28;89452;-62
2023/07/15 16:58:13;;;;;;;;;;;24.00;64.80;;;;;;10416429;28;89474;-62
2023/07/15 17:03:15;;;;;;;;;;;23.90;63.90;;;;;;10415496;27;87786;-62
2023/07/15 17:08:17;;;;;;;;;;;23.80;63.40;;;;;;10415576;27;88117;-62
2023/07/15 17:13:19;;;;;;;;;;;23.80;63.60;;;;;;10416344;28;89324;-62
2023/07/15 17:18:20;;;;;;;;;;;23.80;63.40;;;;;;10416824;27;88398;-62
2023/07/15 17:23:22;;;;;;;;;;;23.80;63.20;;;;;;10417184;28;88290;-62
2023/07/15 17:28:24;;;;;;;;;;;23.80;63.20;;;;;;10416201;28;89513;-62
2023/07/15 17:33:26;;;;;;;;;;;23.80;62.60;;;;;;10414225;28;88374;-62
2023/07/15 17:38:27;;;;;;;;;;;23.80;62.50;;;;;;10420077;27;89290;-62
2023/07/15 17:43:29;;;;;;;;;;;23.90;62.20;;;;;;10421923;28;89217;-65
2023/07/15 17:48:31;;;;;;;;;;;23.90;62.70;;;;;;10421428;27;89357;-64
2023/07/15 17:53:33;;;;;;;;;;;23.90;61.20;;;;;;10386188;27;89528;-65
2023/07/15 17:58:34;;;;;;;;;;;23.90;60.00;;;;;;10380772;28;89329;-65
2023/07/15 18:03:36;;;;;;;;;;;23.90;59.10;;;;;;10379741;28;89786;-65
2023/07/15 18:08:37;;;;;;;;;;;23.90;59.50;;;;;;10380609;28;90152;-62
2023/07/15 18:13:39;;;;;;;;;;;23.90;59.00;;;;;;10380466;28;90126;-61
2023/07/15 18:18:41;;;;;;;;;;;23.80;58.20;;;;;;10378446;28;89242;-62
2023/07/15 18:23:43;;;;;;;;;;;23.90;58.00;;;;;;10379878;28;89748;-62
2023/07/15 18:28:45;;;;;;;;;;;24.00;58.10;;;;;;10379095;28;88069;-65
2023/07/15 18:33:46;;;;;;;;;;;24.00;58.10;;;;;;10380057;28;88552;-65
2023/07/15 18:38:48;;;;;;;;;;;24.10;58.00;;;;;;10379923;28;89410;-62
2023/07/15 18:43:50;;;;;;;;;;;24.10;57.60;;;;;;10379262;28;89221;-62
2023/07/15 18:48:52;;;;;;;;;;;24.00;57.40;;;;;;10379624;28;90099;-62
2023/07/15 18:53:54;;;;;;;;;;;23.90;57.20;;;;;;10359172;28;90739;-64
2023/07/15 18:58:56;;;;;;;;;;;23.80;57.70;;;;;;10378050;28;89095;-65
2023/07/15 19:03:58;;;;;;;;;;;23.70;57.80;;;;;;10377202;28;89160;-65
2023/07/15 19:08:59;;;;;;;;;;;23.70;58.00;;;;;;10377834;28;88329;-64
2023/07/15 19:14:01;;;;;;;;;;;23.70;58.10;;;;;;10377929;28;89077;-65
2023/07/15 19:19:03;;;;;;;;;;;23.70;57.90;;;;;;10379336;28;90094;-64
2023/07/15 19:24:05;;;;;;;;;;;23.60;58.00;;;;;;10377356;28;89976;-64
2023/07/15 19:29:07;;;;;;;;;;;23.70;57.80;;;;;;10378427;28;88193;-63
2023/07/15 19:34:09;;;;;;;;;;;23.60;57.60;;;;;;10376827;28;89088;-65
2023/07/15 19:39:10;;;;;;;;;;;23.60;57.70;;;;;;10376358;28;90045;-64
2023/07/15 19:44:12;;;;;;;;;;;23.60;57.80;;;;;;10376189;28;89938;-62
2023/07/15 19:49:16;;;;;;;;;;;23.60;57.50;;;;;;10375885;28;90221;-64
2023/07/15 19:54:18;;;;;;;;;;;23.60;57.50;;;;;;10377363;28;90020;-63
2023/07/15 19:59:20;;;;;;;;;;;23.60;57.80;;;;;;10375236;28;89113;-64
2023/07/15 20:04:22;;;;;;;;;;;23.80;57.80;;;;;;10374132;28;89130;-64
2023/07/15 20:09:24;;;;;;;;;;;23.80;57.50;;;;;;10416712;27;88116;-64
2023/07/15 20:14:26;;;;;;;;;;;24.00;57.50;;;;;;10414171;28;89169;-64
2023/07/15 20:19:28;;;;;;;;;;;24.10;57.30;;;;;;10415962;27;89139;-63
2023/07/15 20:24:30;;;;;;;;;;;24.10;57.30;;;;;;10393524;28;90575;-65
2023/07/15 20:29:31;;;;;;;;;;;24.20;57.30;;;;;;10376417;28;90256;-65
2023/07/15 20:34:33;;;;;;;;;;;24.20;57.30;;;;;;10379609;27;89702;-64
2023/07/15 20:39:35;;;;;;;;;;;24.30;57.30;;;;;;10373303;28;89792;-64
2023/07/15 20:44:37;;;;;;;;;;;24.30;57.40;;;;;;10374511;28;90371;-64
2023/07/15 20:49:38;;;;;;;;;;;24.30;57.30;;;;;;10374164;28;90326;-64
2023/07/15 20:54:40;;;;;;;;;;;24.30;57.40;;;;;;10375092;28;88620;-64
2023/07/15 20:59:42;;;;;;;;;;;24.40;57.40;;;;;;10374189;28;88912;-63
2023/07/15 21:04:44;;;;;;;;;;;24.40;57.40;;;;;;10373547;28;89205;-65
2023/07/15 21:09:45;;;;;;;;;;;24.40;57.40;;;;;;10373485;28;88343;-65
2023/07/15 21:14:47;;;;;;;;;;;24.40;57.40;;;;;;10372837;28;88617;-63
2023/07/15 21:19:49;;;;;;;;;;;24.40;57.40;;;;;;10374412;28;89962;-64
2023/07/15 21:24:51;;;;;;;;;;;24.40;57.20;;;;;;10373951;28;91273;-63
2023/07/15 21:29:53;;;;;;;;;;;24.40;57.10;;;;;;10374150;28;88384;-64
2023/07/15 21:34:54;;;;;;;;;;;24.40;56.90;;;;;;10371490;28;89082;-63
2023/07/15 21:39:56;;;;;;;;;;;24.40;56.80;;;;;;10373474;28;90522;-63
2023/07/15 21:44:58;;;;;;;;;;;24.30;56.70;;;;;;10372851;28;89617;-65
2023/07/15 21:50:00;;;;;;;;;;;24.30;56.80;;;;;;10368626;28;89242;-64
2023/07/15 21:55:01;;;;;;;;;;;24.30;56.60;;;;;;10395563;27;89000;-64
2023/07/15 22:00:08;;;;;;;;;;;24.30;56.40;;;;;;10415314;27;88640;-64
2023/07/15 22:05:10;;;;;;;;;;;24.30;56.60;;;;;;10413572;27;89059;-64
2023/07/15 22:10:12;;;;;;;;;;;24.30;56.70;;;;;;10414867;27;90263;-64
2023/07/15 22:15:14;;;;;;;;;;;24.30;56.60;;;;;;10411201;28;89820;-64
2023/07/15 22:20:15;;;;;;;;;;;24.30;56.40;;;;;;10415260;27;90115;-64
2023/07/15 22:25:17;;;;;;;;;;;24.30;56.30;;;;;;10419409;27;90323;-64
2023/07/15 22:30:19;;;;;;;;;;;24.30;56.40;;;;;;10419549;28;90087;-64
2023/07/15 22:35:21;;;;;;;;;;;24.20;56.10;;;;;;10420425;28;89991;-63
2023/07/15 22:40:23;;;;;;;;;;;24.20;56.20;;;;;;10419573;28;89869;-64
2023/07/15 22:45:25;;;;;;;;;;;24.20;56.10;;;;;;10420221;27;90247;-64
2023/07/15 22:50:27;;;;;;;;;;;24.20;56.10;;;;;;10421749;28;88239;-64
2023/07/15 22:55:29;;;;;;;;;;;24.20;56.10;;;;;;10419685;27;88611;-64
2023/07/15 23:00:31;;;;;;;;;;;24.20;56.00;;;;;;10420564;28;88977;-63
2023/07/15 23:05:32;;;;;;;;;;;24.20;56.00;;;;;;10409192;27;89838;-63
2023/07/15 23:10:34;;;;;;;;;;;24.20;56.00;;;;;;10392208;28;89009;-63
2023/07/15 23:15:36;;;;;;;;;;;24.20;56.10;;;;;;10417739;28;90321;-64
2023/07/15 23:20:38;;;;;;;;;;;24.20;56.10;;;;;;10401114;27;90172;-64
2023/07/15 23:25:40;;;;;;;;;;;24.20;56.00;;;;;;10382194;27;88935;-63
2023/07/15 23:30:45;;;;;;;;;;;24.20;56.00;;;;;;10377853;28;89242;-64
2023/07/15 23:35:48;;;;;;;;;;;24.20;55.90;;;;;;10375985;28;90112;-64
2023/07/15 23:40:50;;;;;;;;;;;24.20;55.90;;;;;;10377431;28;89104;-64
2023/07/15 23:45:52;;;;;;;;;;;24.20;55.90;;;;;;10377604;28;90066;-64
2023/07/15 23:50:54;;;;;;;;;;;24.20;55.90;;;;;;10375683;28;90224;-64
2023/07/15 23:55:55;;;;;;;;;;;24.20;55.80;;;;;;10375370;28;91008;-64
